Time;durP1;ratioP1;P1;durP2;ratioP2;P2;SDS_P1;SDS_P2;PMS_P1;PMS_P2;Temp;Humidity;BMP_temperature;BMP_pressure;BME280_temperature;BME280_humidity;BME280_pressure;Samples;Min_cycle;Max_cycle;Signal;HPM_P1;HPM_P2
2023/04/07 00:02:05;;;;;;;13.00;4.20;;;;;;;2.45;74.86;101456.22;5094652;28;20814;-67
2023/04/07 00:04:31;;;;;;;11.10;4.50;;;;;;;2.38;75.75;101460.00;5094606;28;20440;-67
2023/04/07 00:06:58;;;;;;;10.30;4.33;;;;;;;2.34;76.12;101448.13;5094251;28;20531;-67
2023/04/07 00:09:26;;;;;;;11.40;4.30;;;;;;;2.32;76.15;101450.22;5094363;28;20567;-67
2023/04/07 00:11:53;;;;;;;11.67;4.40;;;;;;;2.32;75.66;101453.72;5094229;28;20906;-67
2023/04/07 00:14:19;;;;;;;19.27;5.00;;;;;;;2.39;75.16;101454.47;5094116;28;20444;-67
2023/04/07 00:16:46;;;;;;;13.50;4.17;;;;;;;2.25;78.17;101453.78;5094068;28;20479;-67
2023/04/07 00:19:12;;;;;;;16.27;5.37;;;;;;;2.35;77.65;101453.28;5094287;28;20528;-67
2023/04/07 00:21:39;;;;;;;16.30;5.50;;;;;;;2.44;77.71;101445.75;5093962;28;20898;-66
2023/04/07 00:24:06;;;;;;;15.57;5.07;;;;;;;2.48;77.75;101463.00;5093968;28;20971;-67
2023/04/07 00:26:34;;;;;;;11.83;5.20;;;;;;;2.53;77.42;101457.78;5093924;28;21029;-67
2023/04/07 00:29:01;;;;;;;11.87;3.70;;;;;;;2.46;77.88;101451.69;5093973;28;20587;-67
2023/04/07 00:31:27;;;;;;;10.47;5.23;;;;;;;2.27;79.33;101446.38;5094140;28;20523;-67
2023/04/07 00:33:54;;;;;;;14.23;5.60;;;;;;;2.24;79.87;101451.34;5094087;28;20436;-67
2023/04/07 00:36:21;;;;;;;12.07;4.47;;;;;;;2.43;78.19;101452.13;5093999;28;20432;-67
2023/04/07 00:38:47;;;;;;;14.20;4.83;;;;;;;2.26;79.86;101442.06;5093934;28;20463;-67
2023/04/07 00:41:14;;;;;;;14.43;5.10;;;;;;;2.16;80.95;101439.09;5093985;28;20447;-67
2023/04/07 00:43:42;;;;;;;14.23;5.33;;;;;;;2.15;80.14;101436.66;5093865;28;20972;-66
2023/04/07 00:46:09;;;;;;;12.23;4.83;;;;;;;2.15;79.69;101440.13;5093595;28;20436;-67
2023/04/07 00:48:36;;;;;;;12.03;4.77;;;;;;;2.20;80.24;101442.13;5093672;28;20484;-67
2023/04/07 00:51:04;;;;;;;11.23;4.70;;;;;;;2.11;80.64;101444.28;5093802;28;20535;-67
2023/04/07 00:53:30;;;;;;;12.27;5.83;;;;;;;2.08;79.53;101441.25;5093807;28;20459;-67
2023/04/07 00:55:57;;;;;;;14.07;5.87;;;;;;;1.91;79.02;101438.38;5093400;28;20527;-67
2023/04/07 00:58:23;;;;;;;10.27;4.47;;;;;;;1.72;80.81;101440.19;5093597;28;20520;-67
2023/04/07 01:00:57;;;;;;;12.23;5.57;;;;;;;1.80;80.43;101433.75;5093553;28;20439;-67
2023/04/07 01:03:30;;;;;;;11.90;5.23;;;;;;;1.71;80.77;101435.91;5093925;28;20445;-67
2023/04/07 01:06:01;;;;;;;12.23;5.17;;;;;;;1.63;80.25;101433.50;5093305;28;20858;-67
2023/04/07 01:08:36;;;;;;;13.30;5.63;;;;;;;1.64;80.01;101427.97;5093384;28;20468;-66
2023/04/07 01:11:08;;;;;;;14.67;5.73;;;;;;;1.60;79.81;101425.97;5093344;28;20543;-66
2023/04/07 01:13:38;;;;;;;15.27;4.60;;;;;;;1.71;79.33;101423.34;5093149;28;20448;-66
2023/04/07 01:16:16;;;;;;;12.20;5.87;;;;;;;1.71;79.10;101427.88;5093438;28;20524;-66
2023/04/07 01:18:47;;;;;;;17.33;5.53;;;;;;;1.62;79.73;101429.22;5093314;28;20464;-67
2023/04/07 01:21:16;;;;;;;19.60;6.17;;;;;;;1.56;80.55;101419.44;5093383;28;20528;-67
2023/04/07 01:24:00;;;;;;;19.93;5.47;;;;;;;1.44;81.97;101422.00;5093305;28;20476;-67
2023/04/07 01:26:29;;;;;;;11.77;5.77;;;;;;;1.32;81.76;101411.19;5092591;28;20425;-67
2023/04/07 01:29:18;;;;;;;13.80;5.70;;;;;;;1.28;82.31;101402.00;5093097;28;20480;-67
2023/04/07 01:31:46;;;;;;;13.73;5.50;;;;;;;1.36;82.98;101408.91;5093248;28;20531;-67
2023/04/07 01:34:14;;;;;;;12.47;5.20;;;;;;;1.56;82.33;101409.56;5092892;28;20897;-67
2023/04/07 01:36:42;;;;;;;13.20;5.47;;;;;;;1.36;83.06;101409.72;5093228;28;20468;-67
2023/04/07 01:39:09;;;;;;;18.93;4.63;;;;;;;1.28;83.29;101404.66;5093088;28;20474;-67
2023/04/07 01:41:38;;;;;;;11.63;6.00;;;;;;;1.27;82.35;101397.72;5092828;28;20945;-67
2023/04/07 01:44:06;;;;;;;19.03;6.27;;;;;;;1.29;81.83;101400.19;5092773;28;20436;-67
2023/04/07 01:46:34;;;;;;;15.83;6.80;;;;;;;1.26;81.24;101398.75;5092798;28;20476;-67
2023/04/07 01:49:02;;;;;;;13.10;5.80;;;;;;;1.31;81.47;101404.25;5092907;28;20492;-67
2023/04/07 01:51:31;;;;;;;15.80;5.40;;;;;;;1.20;82.07;101403.13;5093016;28;20519;-67
2023/04/07 01:53:59;;;;;;;18.00;5.40;;;;;;;1.26;82.74;101404.09;5092961;28;20444;-67
2023/04/07 01:56:25;;;;;;;15.87;6.33;;;;;;;1.35;82.71;101404.63;5093001;28;20476;-67
2023/04/07 01:58:52;;;;;;;10.17;5.20;;;;;;;1.40;82.65;101402.13;5092862;28;20478;-67
2023/04/07 02:01:19;;;;;;;14.00;6.13;;;;;;;1.42;82.87;101410.72;5092922;28;20440;-67
2023/04/07 02:03:53;;;;;;;11.90;6.20;;;;;;;1.36;83.62;101403.59;5092633;28;20448;-67
2023/04/07 02:06:22;;;;;;;13.70;5.10;;;;;;;1.19;84.06;101403.31;5092690;28;20930;-67
2023/04/07 02:08:51;;;;;;;11.77;5.37;;;;;;;1.07;85.13;101403.22;5092658;28;20480;-67
2023/04/07 02:11:21;;;;;;;12.97;5.40;;;;;;;1.12;85.24;101395.38;5092470;28;20539;-67
2023/04/07 02:13:48;;;;;;;14.50;6.73;;;;;;;1.11;85.01;101401.75;5092838;28;20444;-67
2023/04/07 02:16:17;;;;;;;11.17;5.10;;;;;;;1.25;84.43;101395.28;5092712;28;20443;-67
2023/04/07 02:18:46;;;;;;;16.60;6.10;;;;;;;1.32;84.12;101397.06;5092720;28;20551;-67
2023/04/07 02:21:15;;;;;;;15.00;5.90;;;;;;;1.42;83.25;101395.53;5092769;28;20440;-66
2023/04/07 02:23:41;;;;;;;16.43;5.97;;;;;;;1.34;83.76;101392.31;5092745;28;20448;-67
2023/04/07 02:26:08;;;;;;;22.40;5.27;;;;;;;1.31;84.68;101395.44;5092567;28;20812;-66
2023/04/07 02:28:35;;;;;;;15.60;6.23;;;;;;;1.27;83.63;101384.38;5092659;28;20812;-66
2023/04/07 02:31:01;;;;;;;14.17;6.50;;;;;;;1.27;83.22;101395.84;5092752;28;20441;-66
2023/04/07 02:33:28;;;;;;;13.07;6.00;;;;;;;1.27;83.15;101395.84;5092848;28;20526;-66
2023/04/07 02:35:54;;;;;;;12.00;5.57;;;;;;;1.26;83.29;101388.06;5092582;28;20467;-66
2023/04/07 02:38:22;;;;;;;14.90;5.70;;;;;;;1.14;83.39;101389.81;5096298;28;20440;-66
2023/04/07 02:40:49;;;;;;;15.70;5.70;;;;;;;1.00;84.24;101387.25;5096078;28;20443;-67
2023/04/07 02:43:17;;;;;;;14.40;5.33;;;;;;;1.06;84.46;101377.56;5096284;28;20444;-66
2023/04/07 02:45:44;;;;;;;12.23;5.30;;;;;;;1.04;85.11;101384.97;5096274;28;20521;-66
2023/04/07 02:48:11;;;;;;;13.90;5.40;;;;;;;1.04;84.06;101378.84;5095688;28;20451;-65
2023/04/07 02:50:37;;;;;;;10.93;5.40;;;;;;;1.08;83.71;101372.03;5095879;28;20535;-66
2023/04/07 02:53:04;;;;;;;19.23;6.03;;;;;;;1.07;84.11;101381.06;5096114;28;20471;-66
2023/04/07 02:55:32;;;;;;;10.60;4.50;;;;;;;1.08;83.42;101383.50;5096072;28;20436;-66
2023/04/07 02:57:58;;;;;;;21.40;6.50;;;;;;;0.99;83.62;101382.16;5095988;28;20531;-67
2023/04/07 03:00:25;;;;;;;10.30;5.00;;;;;;;0.99;83.05;101382.97;5095603;28;20456;-67
2023/04/07 03:02:52;;;;;;;10.87;4.97;;;;;;;0.97;84.17;101378.88;5095908;28;20467;-66
2023/04/07 03:05:18;;;;;;;13.53;5.30;;;;;;;1.02;83.86;101373.72;5095823;28;20486;-66
2023/04/07 03:07:45;;;;;;;11.60;5.33;;;;;;;0.97;84.03;101384.22;5095489;28;20937;-66
2023/04/07 03:10:12;;;;;;;14.10;6.13;;;;;;;0.96;83.50;101377.25;5096836;28;20488;-66
2023/04/07 03:12:39;;;;;;;14.40;6.10;;;;;;;1.04;82.84;101376.16;5095458;28;20967;-67
2023/04/07 03:15:07;;;;;;;12.00;5.00;;;;;;;1.04;81.74;101374.31;5095324;28;20487;-67
2023/04/07 03:17:35;;;;;;;14.47;5.73;;;;;;;1.03;82.86;101379.88;5095591;28;20524;-66
2023/04/07 03:20:01;;;;;;;12.67;5.70;;;;;;;0.94;85.33;101374.81;5095448;28;20543;-67
2023/04/07 03:22:28;;;;;;;19.90;7.10;;;;;;;0.90;85.84;101372.78;5095191;28;20436;-66
2023/04/07 03:24:55;;;;;;;14.03;5.40;;;;;;;0.89;85.79;101371.97;5095172;28;20980;-66
2023/04/07 03:27:21;;;;;;;13.33;6.67;;;;;;;1.02;84.83;101371.06;5095379;28;20484;-66
2023/04/07 03:29:50;;;;;;;11.83;6.20;;;;;;;1.12;84.16;101382.03;5095143;28;20495;-66
2023/04/07 03:32:16;;;;;;;10.17;5.03;;;;;;;1.01;84.98;101369.41;5095330;28;20472;-67
2023/04/07 03:34:43;;;;;;;12.70;5.30;;;;;;;0.90;85.48;101367.47;5094943;28;20447;-67
2023/04/07 03:37:09;;;;;;;15.17;7.27;;;;;;;1.02;85.26;101365.72;5095208;28;20445;-67
2023/04/07 03:39:36;;;;;;;13.03;7.40;;;;;;;0.90;85.56;101362.13;5095117;28;20539;-67
2023/04/07 03:42:03;;;;;;;14.67;7.40;;;;;;;0.77;86.98;101360.38;5094813;28;20941;-67
2023/04/07 03:44:30;;;;;;;16.67;6.77;;;;;;;0.70;87.26;101363.06;5094814;28;20472;-68
2023/04/07 03:46:58;;;;;;;13.50;5.90;;;;;;;0.72;87.07;101363.69;5094942;28;20937;-66
2023/04/07 03:49:25;;;;;;;11.43;5.40;;;;;;;0.69;87.50;101363.31;5094396;28;20495;-67
2023/04/07 03:51:52;;;;;;;15.67;5.57;;;;;;;0.89;85.21;101363.97;5094630;28;20440;-67
2023/04/07 03:54:19;;;;;;;12.03;5.83;;;;;;;0.97;83.24;101363.72;5094916;28;20531;-67
2023/04/07 03:56:45;;;;;;;13.97;6.33;;;;;;;1.00;83.33;101365.13;5094479;28;20539;-67
2023/04/07 03:59:12;;;;;;;10.63;5.47;;;;;;;0.98;84.60;101361.84;5094707;28;20541;-67
2023/04/07 04:01:39;;;;;;;12.40;5.17;;;;;;;0.86;84.57;101366.25;5094647;28;20440;-66
2023/04/07 04:04:07;;;;;;;12.87;5.53;;;;;;;0.98;83.27;101364.53;5094336;28;20954;-66
2023/04/07 04:06:33;;;;;;;14.33;6.43;;;;;;;1.04;82.33;101360.97;5094384;28;20483;-67
2023/04/07 04:09:00;;;;;;;17.93;6.53;;;;;;;1.00;83.30;101362.44;5094434;28;20484;-66
2023/04/07 04:11:27;;;;;;;12.47;5.30;;;;;;;0.95;84.32;101364.94;5094255;28;20633;-66
2023/04/07 04:13:53;;;;;;;13.03;5.90;;;;;;;0.94;84.39;101369.47;5094136;28;20440;-66
2023/04/07 04:16:20;;;;;;;15.50;5.07;;;;;;;1.01;84.39;101362.22;5094455;28;20453;-66
2023/04/07 04:18:46;;;;;;;13.73;6.00;;;;;;;0.96;84.55;101364.72;5094307;28;20461;-67
2023/04/07 04:21:15;;;;;;;12.43;5.30;;;;;;;0.98;84.26;101369.88;5094083;28;20466;-66
2023/04/07 04:23:41;;;;;;;12.20;5.37;;;;;;;0.98;84.36;101370.69;5094274;28;20535;-66
2023/04/07 04:26:08;;;;;;;16.83;4.83;;;;;;;1.05;84.24;101367.94;5094237;28;20476;-66
2023/04/07 04:28:34;;;;;;;12.30;4.97;;;;;;;0.98;83.48;101372.53;5093700;28;21018;-66
2023/04/07 04:31:01;;;;;;;10.50;4.73;;;;;;;0.94;84.46;101364.13;5094211;28;20494;-66
2023/04/07 04:33:28;;;;;;;12.43;5.57;;;;;;;0.98;84.55;101370.69;5094132;28;20472;-66
2023/04/07 04:35:54;;;;;;;9.80;5.27;;;;;;;1.01;86.30;101374.75;5094149;28;20468;-66
2023/04/07 04:38:22;;;;;;;16.27;5.67;;;;;;;1.13;86.14;101373.00;5094039;28;20451;-66
2023/04/07 04:40:49;;;;;;;10.80;4.73;;;;;;;1.29;84.26;101373.50;5093732;28;20448;-66
2023/04/07 04:43:15;;;;;;;10.23;5.40;;;;;;;1.35;85.05;101375.28;5093985;28;20453;-66
2023/04/07 04:45:42;;;;;;;15.10;5.80;;;;;;;1.24;85.33;101379.50;5093919;28;20441;-66
2023/04/07 04:48:09;;;;;;;12.33;6.10;;;;;;;1.30;84.45;101377.78;5093610;28;20479;-66
2023/04/07 04:50:36;;;;;;;10.40;5.10;;;;;;;1.30;84.68;101380.47;5093778;28;20484;-66
2023/04/07 04:53:03;;;;;;;12.23;5.17;;;;;;;1.34;85.44;101373.66;5093474;28;20531;-67
2023/04/07 04:55:30;;;;;;;10.53;4.83;;;;;;;1.39;84.54;101373.78;5093795;28;20436;-67
2023/04/07 04:57:57;;;;;;;13.57;5.53;;;;;;;1.53;84.30;101377.97;5093682;28;20836;-66
2023/04/07 05:00:24;;;;;;;11.80;5.13;;;;;;;1.46;84.46;101374.53;5092735;28;20462;-67
2023/04/07 05:02:50;;;;;;;12.80;5.50;;;;;;;1.39;85.68;101373.78;5093792;28;20853;-66
2023/04/07 05:05:17;;;;;;;12.50;6.20;;;;;;;1.45;85.71;101375.56;5093675;28;20441;-66
2023/04/07 05:07:44;;;;;;;13.30;5.90;;;;;;;1.48;85.52;101375.94;5093627;28;20535;-66
2023/04/07 05:10:11;;;;;;;15.80;6.70;;;;;;;1.41;86.25;101377.03;5093450;28;20488;-66
2023/04/07 05:12:39;;;;;;;12.30;5.90;;;;;;;1.55;85.99;101388.41;5093346;28;20453;-66
2023/04/07 05:15:07;;;;;;;16.10;6.57;;;;;;;1.56;86.29;101382.88;5093118;28;20946;-66
2023/04/07 05:17:33;;;;;;;17.53;6.50;;;;;;;1.60;85.89;101383.25;5093393;28;20432;-67
2023/04/07 05:20:00;;;;;;;13.10;6.10;;;;;;;1.74;85.08;101390.06;5092969;28;20995;-67
2023/04/07 05:22:26;;;;;;;13.20;6.50;;;;;;;1.66;85.71;101388.50;5093034;28;20449;-67
2023/04/07 05:24:53;;;;;;;15.43;6.53;;;;;;;1.73;85.57;101391.13;5093243;28;20475;-66
2023/04/07 05:27:19;;;;;;;12.00;5.37;;;;;;;1.76;86.13;101388.78;5093242;28;20523;-66
2023/04/07 05:29:47;;;;;;;17.30;7.17;;;;;;;1.84;85.78;101390.34;5093379;28;20608;-66
2023/04/07 05:32:14;;;;;;;13.17;5.80;;;;;;;1.89;85.50;101397.69;5093236;28;20816;-66
2023/04/07 05:34:41;;;;;;;17.63;7.13;;;;;;;2.03;85.15;101393.81;5093173;28;20941;-66
2023/04/07 05:37:07;;;;;;;12.10;6.90;;;;;;;2.03;84.19;101391.16;5092854;28;20488;-66
2023/04/07 05:39:34;;;;;;;20.13;7.53;;;;;;;2.09;84.40;101392.13;5093075;28;20552;-67
2023/04/07 05:42:01;;;;;;;22.07;7.67;;;;;;;2.34;83.24;101387.47;5093109;28;20449;-66
2023/04/07 05:44:28;;;;;;;16.97;7.00;;;;;;;2.39;82.89;101395.66;5093031;28;20440;-66
2023/04/07 05:46:56;;;;;;;16.40;6.90;;;;;;;2.52;82.39;101397.28;5093143;28;20519;-66
2023/04/07 05:49:22;;;;;;;15.90;7.40;;;;;;;2.55;82.33;101394.19;5092625;28;20516;-67
2023/04/07 05:51:49;;;;;;;20.43;7.80;;;;;;;2.62;82.01;101399.44;5092690;28;20440;-66
2023/04/07 05:54:15;;;;;;;19.77;8.57;;;;;;;2.68;82.01;101391.31;5092998;28;20441;-66
2023/04/07 05:56:42;;;;;;;17.40;8.27;;;;;;;2.86;80.54;101389.59;5093215;28;20469;-66
2023/04/07 05:59:09;;;;;;;16.77;7.30;;;;;;;2.92;80.25;101386.00;5092802;28;20464;-66
2023/04/07 06:01:36;;;;;;;16.63;7.50;;;;;;;2.95;79.30;101394.38;5092698;28;20448;-66
2023/04/07 06:04:04;;;;;;;13.27;6.60;;;;;;;3.00;78.96;101391.84;5092875;28;20436;-66
2023/04/07 06:06:30;;;;;;;18.27;7.93;;;;;;;3.05;78.88;101391.13;5093008;28;20436;-66
2023/04/07 06:08:57;;;;;;;13.93;6.43;;;;;;;3.11;78.99;101384.88;5092688;28;20555;-66
2023/04/07 06:11:23;;;;;;;16.27;7.60;;;;;;;3.16;78.46;101392.22;5093116;28;20546;-65
2023/04/07 06:13:50;;;;;;;17.63;7.33;;;;;;;3.23;77.49;101399.09;5096540;28;20816;-67
2023/04/07 06:16:17;;;;;;;17.57;7.73;;;;;;;3.21;78.12;101389.66;5096813;28;20436;-66
2023/04/07 06:18:43;;;;;;;17.47;6.47;;;;;;;3.28;77.72;101393.84;5096330;28;20460;-66
2023/04/07 06:21:11;;;;;;;15.07;7.03;;;;;;;3.45;77.55;101395.81;5096707;28;20947;-66
2023/04/07 06:23:38;;;;;;;15.00;6.17;;;;;;;3.57;77.84;101403.84;5096765;28;20440;-66
2023/04/07 06:26:05;;;;;;;15.30;6.73;;;;;;;3.69;77.79;101400.13;5096608;28;20468;-66
2023/04/07 06:28:31;;;;;;;17.93;6.70;;;;;;;3.80;78.02;101417.22;5096225;28;20470;-66
2023/04/07 06:30:58;;;;;;;9.97;5.00;;;;;;;3.92;77.40;101409.16;5096727;28;20838;-66
2023/04/07 06:33:25;;;;;;;15.80;6.40;;;;;;;3.99;76.20;101407.19;5096446;28;20436;-67
2023/04/07 06:35:51;;;;;;;12.73;5.47;;;;;;;4.18;76.27;101400.59;5096422;28;20440;-67
2023/04/07 06:38:19;;;;;;;12.97;6.33;;;;;;;4.35;76.58;101405.22;5096353;28;20451;-69
2023/04/07 06:40:46;;;;;;;14.47;6.57;;;;;;;4.56;75.65;101401.84;5096096;28;20436;-70
2023/04/07 06:43:12;;;;;;;11.17;5.80;;;;;;;4.78;74.47;101405.47;5096349;28;20436;-69
2023/04/07 06:45:39;;;;;;;11.77;6.07;;;;;;;4.99;74.11;101397.75;5096257;28;20446;-71
2023/04/07 06:48:06;;;;;;;10.23;5.77;;;;;;;5.19;73.11;101410.69;5096319;28;20682;-67
2023/04/07 06:50:33;;;;;;;12.57;5.97;;;;;;;5.35;72.41;101414.41;5096036;28;20530;-67
2023/04/07 06:52:59;;;;;;;13.67;5.80;;;;;;;5.29;71.41;101405.47;5096113;28;20527;-68
2023/04/07 06:55:27;;;;;;;14.53;5.20;;;;;;;5.37;71.63;101406.94;5096107;28;20448;-68
2023/04/07 06:57:54;;;;;;;12.83;5.60;;;;;;;5.45;70.56;101403.84;5096037;28;20440;-68
2023/04/07 07:00:21;;;;;;;12.73;4.97;;;;;;;5.47;71.14;101409.78;5095945;28;20466;-67
2023/04/07 07:02:48;;;;;;;12.03;4.77;;;;;;;5.45;70.24;101410.03;5095640;28;20453;-67
2023/04/07 07:05:15;;;;;;;16.80;6.23;;;;;;;5.45;70.07;101414.59;5095546;28;20447;-67
2023/04/07 07:07:41;;;;;;;18.80;5.87;;;;;;;5.47;69.66;101407.09;5095775;28;20955;-67
2023/04/07 07:10:09;;;;;;;12.97;4.87;;;;;;;5.50;68.74;101412.78;5095637;28;20582;-67
2023/04/07 07:12:37;;;;;;;12.80;5.50;;;;;;;5.49;67.76;101416.53;5095571;28;20457;-67
2023/04/07 07:15:05;;;;;;;14.10;5.30;;;;;;;5.37;67.35;101415.00;5095725;28;20455;-67
2023/04/07 07:17:31;;;;;;;14.80;6.00;;;;;;;5.21;68.39;101416.63;5095684;28;20540;-67
2023/04/07 07:19:58;;;;;;;13.20;5.30;;;;;;;5.25;68.81;101418.59;5095597;28;20630;-68
2023/04/07 07:22:25;;;;;;;10.00;4.70;;;;;;;5.24;68.61;101425.00;5095680;28;20447;-69
2023/04/07 07:24:52;;;;;;;9.90;4.50;;;;;;;5.36;69.02;101421.41;5094306;28;20480;-68
2023/04/07 07:27:18;;;;;;;14.87;5.03;;;;;;;5.49;68.63;101418.38;5095716;28;20447;-69
2023/04/07 07:29:46;;;;;;;11.57;4.93;;;;;;;5.57;69.02;101417.97;5095390;28;20495;-67
2023/04/07 07:32:13;;;;;;;12.20;4.87;;;;;;;5.61;69.07;101426.38;5095372;28;20535;-67
2023/04/07 07:34:39;;;;;;;9.87;4.80;;;;;;;5.68;68.44;101433.19;5094924;28;20472;-67
2023/04/07 07:37:06;;;;;;;13.80;5.67;;;;;;;5.72;68.06;101431.66;5095323;28;20444;-68
2023/04/07 07:39:32;;;;;;;13.10;6.60;;;;;;;5.85;68.28;101430.47;5095245;28;20460;-67
2023/04/07 07:42:00;;;;;;;13.37;5.50;;;;;;;5.90;67.60;101427.03;5095150;28;20440;-67
2023/04/07 07:44:26;;;;;;;13.63;5.00;;;;;;;6.09;67.97;101436.47;5094743;28;20451;-67
2023/04/07 07:46:54;;;;;;;10.10;4.80;;;;;;;6.35;67.94;101432.19;5094811;28;20938;-67
2023/04/07 07:49:21;;;;;;;10.97;4.93;;;;;;;6.57;68.00;101445.63;5095189;28;20463;-67
2023/04/07 07:51:47;;;;;;;10.77;4.93;;;;;;;6.76;66.81;101446.91;5094510;28;20487;-67
2023/04/07 07:54:14;;;;;;;10.70;3.97;;;;;;;6.98;66.50;101440.63;5094666;28;20446;-67
2023/04/07 07:56:41;;;;;;;12.63;5.00;;;;;;;7.09;64.81;101442.38;5094929;28;20453;-67
2023/04/07 07:59:07;;;;;;;9.23;3.70;;;;;;;7.23;63.30;101443.56;5094642;28;20492;-67
2023/04/07 08:01:34;;;;;;;10.13;3.87;;;;;;;7.36;62.07;101441.50;5094772;28;20432;-67
2023/04/07 08:04:02;;;;;;;8.97;3.20;;;;;;;7.44;59.34;101441.84;5094468;28;21013;-67
2023/04/07 08:06:30;;;;;;;7.87;3.03;;;;;;;7.56;57.87;101450.53;5094698;28;20447;-68
2023/04/07 08:08:57;;;;;;;10.97;3.23;;;;;;;7.65;56.24;101441.97;5094705;28;20468;-67
2023/04/07 08:11:24;;;;;;;6.63;2.30;;;;;;;7.75;54.92;101436.66;5094435;28;20488;-66
2023/04/07 08:13:50;;;;;;;10.73;2.67;;;;;;;7.83;53.92;101438.81;5094639;28;20436;-67
2023/04/07 08:16:18;;;;;;;7.80;2.50;;;;;;;7.86;51.62;101445.59;5095012;28;20457;-67
2023/04/07 08:18:45;;;;;;;10.70;4.07;;;;;;;8.06;51.90;101438.44;5094459;28;20545;-67
2023/04/07 08:21:13;;;;;;;9.73;3.53;;;;;;;8.19;51.26;101444.41;5094505;28;20447;-67
2023/04/07 08:23:39;;;;;;;8.00;3.00;;;;;;;8.27;50.87;101447.41;5094204;28;20551;-67
2023/04/07 08:26:06;;;;;;;7.20;2.80;;;;;;;8.39;51.69;101446.41;5094478;28;20441;-67
2023/04/07 08:28:33;;;;;;;13.53;2.70;;;;;;;8.47;50.97;101448.59;5094597;28;20471;-67
2023/04/07 08:30:59;;;;;;;7.90;2.80;;;;;;;8.52;50.57;101451.31;5093904;28;20512;-67
2023/04/07 08:33:26;;;;;;;10.77;3.40;;;;;;;8.50;50.32;101456.16;5093906;28;20451;-67
2023/04/07 08:35:53;;;;;;;7.53;2.67;;;;;;;8.51;50.09;101450.50;5093474;28;20988;-67
2023/04/07 08:38:21;;;;;;;17.47;3.20;;;;;;;8.52;50.63;101452.13;5094061;28;20803;-67
2023/04/07 08:40:49;;;;;;;8.40;2.40;;;;;;;8.37;48.91;101459.34;5094073;28;20436;-67
2023/04/07 08:43:19;;;;;;;9.67;2.63;;;;;;;8.31;49.55;101459.28;5094003;28;20990;-69
2023/04/07 08:45:46;;;;;;;8.33;2.53;;;;;;;8.13;48.17;101453.56;5094152;28;20490;-70
2023/04/07 08:48:17;;;;;;;10.13;2.73;;;;;;;8.12;48.79;101450.03;5093893;28;20483;-68
2023/04/07 08:50:45;;;;;;;11.13;2.90;;;;;;;8.23;48.48;101445.50;5093642;28;20969;-69
2023/04/07 08:53:13;;;;;;;11.10;3.10;;;;;;;8.58;50.17;101455.63;5094044;28;20813;-66
2023/04/07 08:55:42;;;;;;;10.27;3.07;;;;;;;8.69;48.77;101451.09;5093832;28;20497;-67
2023/04/07 08:58:11;;;;;;;7.47;2.13;;;;;;;8.99;49.22;101456.53;5093444;28;20972;-67
2023/04/07 09:00:38;;;;;;;7.50;2.10;;;;;;;9.16;48.09;101458.97;5093761;28;20516;-67
2023/04/07 09:03:05;;;;;;;8.17;2.80;;;;;;;9.28;47.87;101461.41;5093779;28;20441;-68
2023/04/07 09:05:33;;;;;;;8.23;2.40;;;;;;;9.09;45.89;101461.13;5093672;28;20448;-69
2023/04/07 09:07:59;;;;;;;9.20;2.63;;;;;;;8.78;46.60;101460.28;5093602;28;20502;-69
2023/04/07 09:10:26;;;;;;;10.30;2.90;;;;;;;8.71;47.43;101465.94;5093344;28;20583;-69
2023/04/07 09:12:54;;;;;;;10.80;2.70;;;;;;;8.56;46.91;101465.91;5093167;28;20555;-68
2023/04/07 09:15:22;;;;;;;8.87;2.50;;;;;;;8.82;48.41;101470.28;5093155;28;20445;-67
2023/04/07 09:17:48;;;;;;;18.70;2.63;;;;;;;9.01;48.43;101478.69;5093320;28;20440;-68
2023/04/07 09:20:15;;;;;;;8.80;3.13;;;;;;;8.95;47.07;101474.38;5093152;28;20543;-68
2023/04/07 09:22:44;;;;;;;7.70;2.50;;;;;;;8.86;47.23;101473.28;5093207;28;20460;-68
2023/04/07 09:25:16;;;;;;;8.93;2.67;;;;;;;8.83;45.74;101477.31;5093051;28;20519;-67
2023/04/07 09:27:59;;;;;;;7.53;2.80;;;;;;;9.09;46.87;101477.34;5092965;28;20479;-67
2023/04/07 09:30:26;;;;;;;9.20;2.40;;;;;;;8.78;45.08;101477.31;5093321;28;20480;-67
2023/04/07 09:32:53;;;;;;;7.47;2.23;;;;;;;8.80;45.32;101472.44;5093357;28;20435;-67
2023/04/07 09:35:22;;;;;;;6.53;2.10;;;;;;;8.70;45.65;101474.31;5092757;28;20527;-66
2023/04/07 09:38:02;;;;;;;8.10;2.07;;;;;;;8.57;46.23;101468.31;5092851;28;20543;-66
2023/04/07 09:40:28;;;;;;;8.33;2.50;;;;;;;8.38;45.96;101482.59;5092985;28;20497;-68
2023/04/07 09:42:57;;;;;;;6.60;2.10;;;;;;;8.20;46.23;101470.34;5093112;28;20446;-67
2023/04/07 09:45:25;;;;;;;8.03;2.27;;;;;;;8.13;46.61;101475.94;5093032;28;20436;-67
2023/04/07 09:47:53;;;;;;;6.90;2.13;;;;;;;8.27;46.45;101477.09;5096302;28;20448;-67
2023/04/07 09:50:32;;;;;;;6.60;1.87;;;;;;;8.15;46.65;101484.63;5097103;28;20539;-67
2023/04/07 09:52:59;;;;;;;7.63;2.10;;;;;;;8.22;46.15;101487.06;5097242;28;20413;-67
2023/04/07 09:55:26;;;;;;;7.00;2.20;;;;;;;8.18;45.91;101488.66;5096914;28;20444;-67
2023/04/07 09:57:54;;;;;;;7.03;1.67;;;;;;;7.96;45.36;101481.53;5097124;28;20445;-67
2023/04/07 10:00:23;;;;;;;6.70;1.67;;;;;;;7.93;45.87;101476.66;5096710;28;20472;-67
2023/04/07 10:02:50;;;;;;;7.27;2.00;;;;;;;7.96;46.04;101475.31;5096947;28;20524;-66
2023/04/07 10:05:19;;;;;;;7.07;2.20;;;;;;;8.04;48.49;101477.53;5097027;28;20870;-66
2023/04/07 10:07:46;;;;;;;6.87;1.83;;;;;;;8.25;47.72;101478.44;5097025;28;20457;-67
2023/04/07 10:10:13;;;;;;;8.70;2.00;;;;;;;8.33;46.85;101477.94;5096812;28;20463;-67
2023/04/07 10:12:42;;;;;;;6.57;1.80;;;;;;;8.51;46.83;101484.78;5096370;28;20559;-66
2023/04/07 10:15:12;;;;;;;5.87;1.40;;;;;;;8.66;46.60;101474.03;5096458;28;20455;-66
2023/04/07 10:17:40;;;;;;;7.37;1.87;;;;;;;8.66;45.97;101476.72;5096773;28;20561;-67
2023/04/07 10:20:10;;;;;;;5.97;1.60;;;;;;;8.78;46.29;101473.78;5096361;28;20475;-67
2023/04/07 10:22:38;;;;;;;8.20;2.13;;;;;;;8.98;47.37;101473.81;5096370;28;20821;-67
2023/04/07 10:25:09;;;;;;;9.13;2.07;;;;;;;9.07;46.30;101476.78;5096624;28;20436;-67
2023/04/07 10:27:48;;;;;;;9.37;1.70;;;;;;;9.22;47.38;101476.81;5096658;28;20497;-66
2023/04/07 10:30:18;;;;;;;7.27;1.57;;;;;;;9.36;46.65;101482.50;5096113;28;21042;-66
2023/04/07 10:32:51;;;;;;;6.27;1.70;;;;;;;9.07;46.02;101479.50;5096096;28;20570;-66
2023/04/07 10:35:18;;;;;;;6.10;1.70;;;;;;;9.03;46.07;101487.34;5096354;28;20527;-66
2023/04/07 10:38:13;;;;;;;6.43;1.43;;;;;;;9.01;47.03;101484.09;5096411;28;20869;-67
2023/04/07 10:40:41;;;;;;;6.10;1.70;;;;;;;8.83;46.46;101487.31;5097445;28;20474;-66
2023/04/07 10:43:10;;;;;;;7.27;1.73;;;;;;;8.73;46.74;101474.59;5096242;28;20451;-66
2023/04/07 10:46:01;;;;;;;8.23;1.87;;;;;;;8.85;47.63;101477.03;5096380;28;20561;-66
2023/04/07 10:48:32;;;;;;;5.77;1.63;;;;;;;8.69;46.90;101473.50;5095768;28;20910;-66
2023/04/07 10:51:16;;;;;;;6.77;1.70;;;;;;;8.72;48.69;101477.53;5096074;28;20472;-67
2023/04/07 10:54:19;;;;;;;6.30;1.60;;;;;;;8.76;48.24;101475.94;5095910;28;20527;-67
2023/04/07 10:57:12;;;;;;;6.03;1.53;;;;;;;8.81;49.84;101474.06;5092413;28;20498;-67
2023/04/07 11:00:03;;;;;;;7.13;1.70;;;;;;;8.94;49.83;101474.63;5095861;28;20489;-67
2023/04/07 11:02:33;;;;;;;7.20;1.50;;;;;;;8.88;50.30;101475.69;5095418;28;20969;-67
2023/04/07 11:05:02;;;;;;;5.50;1.70;;;;;;;8.75;50.57;101474.31;5095444;28;21028;-66
2023/04/07 11:07:45;;;;;;;9.13;2.07;;;;;;;8.88;51.38;101470.28;5095738;28;20451;-67
2023/04/07 11:10:14;;;;;;;7.40;1.53;;;;;;;9.13;51.62;101475.75;5093042;28;20989;-67
2023/04/07 11:12:41;;;;;;;6.70;1.87;;;;;;;9.16;53.11;101464.38;5095528;28;20488;-66
2023/04/07 11:15:17;;;;;;;7.50;1.90;;;;;;;9.39;54.52;101471.16;5095919;28;20532;-67
2023/04/07 11:17:44;;;;;;;6.40;2.03;;;;;;;9.00;59.03;101465.47;5095515;28;20435;-66
2023/04/07 11:20:12;;;;;;;7.20;1.87;;;;;;;8.80;62.51;101468.91;5095131;28;20992;-67
2023/04/07 11:22:39;;;;;;;6.00;2.00;;;;;;;8.56;65.11;101465.91;5095156;28;20954;-67
2023/04/07 11:25:20;;;;;;;5.93;1.90;;;;;;;8.51;68.49;101471.28;5095314;28;20487;-67
2023/04/07 11:27:48;;;;;;;7.30;1.97;;;;;;;8.55;71.20;101467.00;5095383;28;20431;-66
2023/04/07 11:30:16;;;;;;;6.83;2.03;;;;;;;8.43;73.75;101474.50;5094929;28;21027;-67
2023/04/07 11:32:48;;;;;;;7.50;2.33;;;;;;;8.26;76.29;101472.78;5095332;28;20488;-67